sensor_id;sensor_type;location;lat;lon;timestamp;temperature;humidity
14471;DHT22;7321;50.802;4.336;2022-09-13T00:00:17;21.50;99.90
14471;DHT22;7321;50.802;4.336;2022-09-13T00:02:43;21.50;99.90
14471;DHT22;7321;50.802;4.336;2022-09-13T00:05:08;21.50;99.90
14471;DHT22;7321;50.802;4.336;2022-09-13T00:07:34;21.50;99.90
14471;DHT22;7321;50.802;4.336;2022-09-13T00:10:00;21.50;99.90
14471;DHT22;7321;50.802;4.336;2022-09-13T00:12:26;21.40;99.90
14471;DHT22;7321;50.802;4.336;2022-09-13T00:14:51;21.40;99.90
14471;DHT22;7321;50.802;4.336;2022-09-13T00:17:17;21.40;99.90
14471;DHT22;7321;50.802;4.336;2022-09-13T00:19:43;21.30;99.90
14471;DHT22;7321;50.802;4.336;2022-09-13T00:22:08;21.40;99.90
14471;DHT22;7321;50.802;4.336;2022-09-13T00:24:34;21.30;99.90
14471;DHT22;7321;50.802;4.336;2022-09-13T00:27:01;21.30;99.90
14471;DHT22;7321;50.802;4.336;2022-09-13T00:29:27;21.20;99.90
14471;DHT22;7321;50.802;4.336;2022-09-13T00:31:53;21.20;99.90
14471;DHT22;7321;50.802;4.336;2022-09-13T00:34:18;21.10;99.90
14471;DHT22;7321;50.802;4.336;2022-09-13T00:36:44;21.20;99.90
14471;DHT22;7321;50.802;4.336;2022-09-13T00:39:11;21.30;99.90
14471;DHT22;7321;50.802;4.336;2022-09-13T00:41:37;21.30;99.90
14471;DHT22;7321;50.802;4.336;2022-09-13T00:44:03;21.30;99.90
14471;DHT22;7321;50.802;4.336;2022-09-13T00:46:46;21.30;99.90
14471;DHT22;7321;50.802;4.336;2022-09-13T00:51:47;21.40;99.90
14471;DHT22;7321;50.802;4.336;2022-09-13T00:54:14;21.30;99.90
14471;DHT22;7321;50.802;4.336;2022-09-13T00:56:44;21.30;99.90
14471;DHT22;7321;50.802;4.336;2022-09-13T00:59:42;21.40;99.90
14471;DHT22;7321;50.802;4.336;2022-09-13T01:02:09;21.30;99.90
14471;DHT22;7321;50.802;4.336;2022-09-13T01:04:36;21.40;99.90
14471;DHT22;7321;50.802;4.336;2022-09-13T01:07:07;21.40;99.90
14471;DHT22;7321;50.802;4.336;2022-09-13T01:09:39;21.40;99.90
14471;DHT22;7321;50.802;4.336;2022-09-13T01:12:16;21.40;99.90
14471;DHT22;7321;50.802;4.336;2022-09-13T01:14:46;21.40;99.90
14471;DHT22;7321;50.802;4.336;2022-09-13T01:17:13;21.50;99.90
14471;DHT22;7321;50.802;4.336;2022-09-13T01:19:39;21.50;99.90
14471;DHT22;7321;50.802;4.336;2022-09-13T01:25:25;21.60;99.90
14471;DHT22;7321;50.802;4.336;2022-09-13T01:28:17;21.60;99.90
14471;DHT22;7321;50.802;4.336;2022-09-13T01:31:01;21.60;99.90
14471;DHT22;7321;50.802;4.336;2022-09-13T01:39:07;21.70;99.90
14471;DHT22;7321;50.802;4.336;2022-09-13T01:41:58;21.70;99.90
14471;DHT22;7321;50.802;4.336;2022-09-13T01:44:42;21.80;99.90
14471;DHT22;7321;50.802;4.336;2022-09-13T01:47:28;21.80;99.90
14471;DHT22;7321;50.802;4.336;2022-09-13T01:50:55;21.80;99.90
14471;DHT22;7321;50.802;4.336;2022-09-13T01:56:11;21.90;99.90
14471;DHT22;7321;50.802;4.336;2022-09-13T01:58:45;21.80;99.90
14471;DHT22;7321;50.802;4.336;2022-09-13T02:01:16;21.80;99.90
14471;DHT22;7321;50.802;4.336;2022-09-13T02:03:44;21.80;99.90
14471;DHT22;7321;50.802;4.336;2022-09-13T02:09:14;21.90;99.90
14471;DHT22;7321;50.802;4.336;2022-09-13T02:11:43;21.90;99.90
14471;DHT22;7321;50.802;4.336;2022-09-13T02:14:14;21.90;99.90
14471;DHT22;7321;50.802;4.336;2022-09-13T02:16:51;21.90;99.90
14471;DHT22;7321;50.802;4.336;2022-09-13T02:19:25;21.90;99.90
14471;DHT22;7321;50.802;4.336;2022-09-13T02:21:57;21.90;99.90
14471;DHT22;7321;50.802;4.336;2022-09-13T02:24:41;21.80;99.90
14471;DHT22;7321;50.802;4.336;2022-09-13T02:27:10;21.80;99.90
14471;DHT22;7321;50.802;4.336;2022-09-13T02:29:40;21.80;99.90
14471;DHT22;7321;50.802;4.336;2022-09-13T02:32:21;21.80;99.90
14471;DHT22;7321;50.802;4.336;2022-09-13T02:34:57;21.80;99.90
14471;DHT22;7321;50.802;4.336;2022-09-13T02:37:29;21.90;99.90
14471;DHT22;7321;50.802;4.336;2022-09-13T02:40:04;21.80;99.90
14471;DHT22;7321;50.802;4.336;2022-09-13T02:42:38;21.80;99.90
14471;DHT22;7321;50.802;4.336;2022-09-13T02:45:07;21.80;99.90
14471;DHT22;7321;50.802;4.336;2022-09-13T03:01:15;21.60;99.90
14471;DHT22;7321;50.802;4.336;2022-09-13T03:03:41;21.70;99.90
14471;DHT22;7321;50.802;4.336;2022-09-13T03:06:08;21.60;99.90
14471;DHT22;7321;50.802;4.336;2022-09-13T03:08:34;21.60;99.90
14471;DHT22;7321;50.802;4.336;2022-09-13T03:17:02;21.50;99.90
14471;DHT22;7321;50.802;4.336;2022-09-13T03:19:52;21.50;99.90
14471;DHT22;7321;50.802;4.336;2022-09-13T03:30:47;21.50;99.90
14471;DHT22;7321;50.802;4.336;2022-09-13T03:33:42;21.50;99.90
14471;DHT22;7321;50.802;4.336;2022-09-13T03:36:15;21.40;99.90
14471;DHT22;7321;50.802;4.336;2022-09-13T03:38:59;21.40;99.90
14471;DHT22;7321;50.802;4.336;2022-09-13T03:41:34;21.40;99.90
14471;DHT22;7321;50.802;4.336;2022-09-13T03:44:05;21.40;99.90
14471;DHT22;7321;50.802;4.336;2022-09-13T03:46:35;21.50;99.90
14471;DHT22;7321;50.802;4.336;2022-09-13T03:49:09;21.50;99.90
14471;DHT22;7321;50.802;4.336;2022-09-13T03:51:37;21.50;99.90
14471;DHT22;7321;50.802;4.336;2022-09-13T03:54:08;21.50;99.90
14471;DHT22;7321;50.802;4.336;2022-09-13T03:56:35;21.50;99.90
14471;DHT22;7321;50.802;4.336;2022-09-13T03:59:01;21.40;99.90
14471;DHT22;7321;50.802;4.336;2022-09-13T04:01:26;21.40;99.90
14471;DHT22;7321;50.802;4.336;2022-09-13T04:03:52;21.40;99.90
14471;DHT22;7321;50.802;4.336;2022-09-13T04:06:18;21.20;99.90
14471;DHT22;7321;50.802;4.336;2022-09-13T04:08:44;21.10;99.90
14471;DHT22;7321;50.802;4.336;2022-09-13T04:11:10;21.20;99.90
14471;DHT22;7321;50.802;4.336;2022-09-13T04:13:36;21.10;99.90
14471;DHT22;7321;50.802;4.336;2022-09-13T04:16:05;21.10;99.90
14471;DHT22;7321;50.802;4.336;2022-09-13T04:18:32;21.10;99.90
14471;DHT22;7321;50.802;4.336;2022-09-13T04:20:59;21.10;99.90
14471;DHT22;7321;50.802;4.336;2022-09-13T04:23:26;21.10;99.90
14471;DHT22;7321;50.802;4.336;2022-09-13T04:25:52;21.00;99.90
14471;DHT22;7321;50.802;4.336;2022-09-13T04:28:19;21.10;99.90
14471;DHT22;7321;50.802;4.336;2022-09-13T04:30:49;21.10;99.90
14471;DHT22;7321;50.802;4.336;2022-09-13T04:33:15;21.10;99.90
14471;DHT22;7321;50.802;4.336;2022-09-13T04:35:43;21.10;99.90
14471;DHT22;7321;50.802;4.336;2022-09-13T04:38:09;21.10;99.90
14471;DHT22;7321;50.802;4.336;2022-09-13T04:40:35;21.00;99.90
14471;DHT22;7321;50.802;4.336;2022-09-13T04:43:02;21.00;99.90
14471;DHT22;7321;50.802;4.336;2022-09-13T04:45:28;21.00;99.90
14471;DHT22;7321;50.802;4.336;2022-09-13T04:47:55;21.10;99.90
14471;DHT22;7321;50.802;4.336;2022-09-13T04:50:22;21.20;99.90
14471;DHT22;7321;50.802;4.336;2022-09-13T04:52:48;21.20;99.90
14471;DHT22;7321;50.802;4.336;2022-09-13T04:55:15;21.20;99.90
14471;DHT22;7321;50.802;4.336;2022-09-13T04:57:41;21.20;99.90
14471;DHT22;7321;50.802;4.336;2022-09-13T05:00:07;21.20;99.90
14471;DHT22;7321;50.802;4.336;2022-09-13T05:02:33;21.20;99.90
14471;DHT22;7321;50.802;4.336;2022-09-13T05:04:59;21.20;99.90
14471;DHT22;7321;50.802;4.336;2022-09-13T05:07:25;21.20;99.90
14471;DHT22;7321;50.802;4.336;2022-09-13T05:09:51;21.20;99.90
14471;DHT22;7321;50.802;4.336;2022-09-13T05:12:17;21.20;99.90
14471;DHT22;7321;50.802;4.336;2022-09-13T05:14:42;21.20;99.90
14471;DHT22;7321;50.802;4.336;2022-09-13T05:17:08;21.30;99.90
14471;DHT22;7321;50.802;4.336;2022-09-13T05:19:34;21.30;99.90
14471;DHT22;7321;50.802;4.336;2022-09-13T05:22:00;21.20;99.90
14471;DHT22;7321;50.802;4.336;2022-09-13T05:24:26;21.10;99.90
14471;DHT22;7321;50.802;4.336;2022-09-13T05:26:52;21.10;99.90
14471;DHT22;7321;50.802;4.336;2022-09-13T05:29:18;21.20;99.90
14471;DHT22;7321;50.802;4.336;2022-09-13T05:31:44;21.20;99.90
14471;DHT22;7321;50.802;4.336;2022-09-13T05:34:12;21.20;99.90
14471;DHT22;7321;50.802;4.336;2022-09-13T05:36:39;21.20;99.90
14471;DHT22;7321;50.802;4.336;2022-09-13T05:39:05;21.10;99.90
14471;DHT22;7321;50.802;4.336;2022-09-13T05:41:32;21.10;99.90
14471;DHT22;7321;50.802;4.336;2022-09-13T05:43:58;21.10;99.90
14471;DHT22;7321;50.802;4.336;2022-09-13T05:46:24;21.10;99.90
14471;DHT22;7321;50.802;4.336;2022-09-13T05:48:50;21.10;99.90
14471;DHT22;7321;50.802;4.336;2022-09-13T05:51:17;21.10;99.90
14471;DHT22;7321;50.802;4.336;2022-09-13T05:53:46;21.20;99.90
14471;DHT22;7321;50.802;4.336;2022-09-13T05:56:17;21.20;99.90
14471;DHT22;7321;50.802;4.336;2022-09-13T05:58:45;21.20;99.90
14471;DHT22;7321;50.802;4.336;2022-09-13T06:01:13;21.20;99.90
14471;DHT22;7321;50.802;4.336;2022-09-13T06:03:39;21.20;99.90
14471;DHT22;7321;50.802;4.336;2022-09-13T06:06:05;21.10;99.90
14471;DHT22;7321;50.802;4.336;2022-09-13T06:08:32;21.20;99.90
14471;DHT22;7321;50.802;4.336;2022-09-13T06:13:26;21.20;99.90
14471;DHT22;7321;50.802;4.336;2022-09-13T06:15:52;21.20;99.90
14471;DHT22;7321;50.802;4.336;2022-09-13T06:18:18;21.30;99.90
14471;DHT22;7321;50.802;4.336;2022-09-13T06:20:45;21.40;99.90
14471;DHT22;7321;50.802;4.336;2022-09-13T06:23:11;21.40;99.90
14471;DHT22;7321;50.802;4.336;2022-09-13T06:25:37;21.40;99.90
14471;DHT22;7321;50.802;4.336;2022-09-13T06:28:03;21.40;99.90
14471;DHT22;7321;50.802;4.336;2022-09-13T06:30:29;21.30;99.90
14471;DHT22;7321;50.802;4.336;2022-09-13T06:32:56;21.30;99.90
14471;DHT22;7321;50.802;4.336;2022-09-13T06:35:22;21.30;99.90
14471;DHT22;7321;50.802;4.336;2022-09-13T06:37:48;21.30;99.90
14471;DHT22;7321;50.802;4.336;2022-09-13T06:40:14;21.30;99.90
14471;DHT22;7321;50.802;4.336;2022-09-13T06:42:40;21.30;99.90
14471;DHT22;7321;50.802;4.336;2022-09-13T06:45:06;21.30;99.90
14471;DHT22;7321;50.802;4.336;2022-09-13T06:47:32;21.40;99.90
14471;DHT22;7321;50.802;4.336;2022-09-13T06:49:57;21.30;99.90
14471;DHT22;7321;50.802;4.336;2022-09-13T06:52:23;21.40;99.90
14471;DHT22;7321;50.802;4.336;2022-09-13T06:54:49;21.40;99.90
14471;DHT22;7321;50.802;4.336;2022-09-13T06:57:15;21.30;99.90
14471;DHT22;7321;50.802;4.336;2022-09-13T06:59:41;21.40;99.90
14471;DHT22;7321;50.802;4.336;2022-09-13T07:02:08;21.50;99.90
14471;DHT22;7321;50.802;4.336;2022-09-13T07:04:34;21.60;99.90
14471;DHT22;7321;50.802;4.336;2022-09-13T07:07:00;21.80;99.90
14471;DHT22;7321;50.802;4.336;2022-09-13T07:09:26;21.80;99.90
14471;DHT22;7321;50.802;4.336;2022-09-13T07:11:54;22.00;99.90
14471;DHT22;7321;50.802;4.336;2022-09-13T07:14:22;22.10;99.90
14471;DHT22;7321;50.802;4.336;2022-09-13T07:16:49;22.20;99.90
14471;DHT22;7321;50.802;4.336;2022-09-13T07:19:21;22.30;99.90
14471;DHT22;7321;50.802;4.336;2022-09-13T07:21:48;22.30;99.90
14471;DHT22;7321;50.802;4.336;2022-09-13T07:24:15;22.40;99.90
14471;DHT22;7321;50.802;4.336;2022-09-13T07:26:41;22.40;99.90
14471;DHT22;7321;50.802;4.336;2022-09-13T07:29:10;22.60;99.90
14471;DHT22;7321;50.802;4.336;2022-09-13T07:31:38;22.60;99.90
14471;DHT22;7321;50.802;4.336;2022-09-13T07:34:07;22.70;99.90
14471;DHT22;7321;50.802;4.336;2022-09-13T07:36:34;22.70;99.90
14471;DHT22;7321;50.802;4.336;2022-09-13T07:39:01;22.80;99.90
14471;DHT22;7321;50.802;4.336;2022-09-13T07:41:28;22.80;99.90
14471;DHT22;7321;50.802;4.336;2022-09-13T07:43:54;22.90;99.90
14471;DHT22;7321;50.802;4.336;2022-09-13T07:46:22;23.00;99.90
14471;DHT22;7321;50.802;4.336;2022-09-13T07:48:51;23.10;99.90
14471;DHT22;7321;50.802;4.336;2022-09-13T07:51:19;23.10;99.90
14471;DHT22;7321;50.802;4.336;2022-09-13T07:53:46;23.20;99.90
14471;DHT22;7321;50.802;4.336;2022-09-13T07:56:18;23.20;99.90
14471;DHT22;7321;50.802;4.336;2022-09-13T07:58:46;23.30;99.90
14471;DHT22;7321;50.802;4.336;2022-09-13T08:04:00;23.50;99.90
14471;DHT22;7321;50.802;4.336;2022-09-13T08:06:29;23.60;99.90
14471;DHT22;7321;50.802;4.336;2022-09-13T08:08:55;23.70;99.90
14471;DHT22;7321;50.802;4.336;2022-09-13T08:11:23;23.80;99.90
14471;DHT22;7321;50.802;4.336;2022-09-13T08:13:51;24.00;99.90
14471;DHT22;7321;50.802;4.336;2022-09-13T08:16:19;24.10;99.90
14471;DHT22;7321;50.802;4.336;2022-09-13T08:18:47;24.10;99.90
14471;DHT22;7321;50.802;4.336;2022-09-13T08:21:13;24.20;99.90
14471;DHT22;7321;50.802;4.336;2022-09-13T08:23:40;24.30;99.90
14471;DHT22;7321;50.802;4.336;2022-09-13T08:26:06;24.30;99.90
14471;DHT22;7321;50.802;4.336;2022-09-13T08:28:36;24.30;99.90
14471;DHT22;7321;50.802;4.336;2022-09-13T08:31:22;24.40;99.90
14471;DHT22;7321;50.802;4.336;2022-09-13T08:33:48;24.50;99.90
14471;DHT22;7321;50.802;4.336;2022-09-13T08:36:15;24.60;99.90
14471;DHT22;7321;50.802;4.336;2022-09-13T08:38:55;24.70;99.90
14471;DHT22;7321;50.802;4.336;2022-09-13T08:46:55;24.70;99.90
14471;DHT22;7321;50.802;4.336;2022-09-13T08:49:35;24.80;99.90
14471;DHT22;7321;50.802;4.336;2022-09-13T08:52:33;24.90;99.90
14471;DHT22;7321;50.802;4.336;2022-09-13T08:58:15;25.20;99.90
14471;DHT22;7321;50.802;4.336;2022-09-13T09:00:43;25.10;99.90
14471;DHT22;7321;50.802;4.336;2022-09-13T09:03:23;25.20;99.90
14471;DHT22;7321;50.802;4.336;2022-09-13T09:05:53;25.30;99.90
14471;DHT22;7321;50.802;4.336;2022-09-13T09:08:38;25.30;99.90
14471;DHT22;7321;50.802;4.336;2022-09-13T09:16:49;25.30;99.90
14471;DHT22;7321;50.802;4.336;2022-09-13T09:19:38;25.20;99.90
14471;DHT22;7321;50.802;4.336;2022-09-13T09:22:12;25.20;99.90
14471;DHT22;7321;50.802;4.336;2022-09-13T09:24:44;25.30;99.90
14471;DHT22;7321;50.802;4.336;2022-09-13T09:27:16;25.40;99.90
14471;DHT22;7321;50.802;4.336;2022-09-13T09:29:42;25.70;99.90
14471;DHT22;7321;50.802;4.336;2022-09-13T09:35:30;25.80;99.90
14471;DHT22;7321;50.802;4.336;2022-09-13T09:38:17;25.90;99.90
14471;DHT22;7321;50.802;4.336;2022-09-13T09:40:45;25.90;99.90
14471;DHT22;7321;50.802;4.336;2022-09-13T09:43:19;26.00;99.90
14471;DHT22;7321;50.802;4.336;2022-09-13T09:45:46;25.90;99.90
14471;DHT22;7321;50.802;4.336;2022-09-13T09:48:17;26.00;99.90
14471;DHT22;7321;50.802;4.336;2022-09-13T09:50:48;26.00;99.90
14471;DHT22;7321;50.802;4.336;2022-09-13T09:53:26;26.00;99.90
14471;DHT22;7321;50.802;4.336;2022-09-13T09:56:11;26.00;99.90
14471;DHT22;7321;50.802;4.336;2022-09-13T09:58:42;26.10;99.90
14471;DHT22;7321;50.802;4.336;2022-09-13T10:01:30;26.30;99.90
14471;DHT22;7321;50.802;4.336;2022-09-13T10:04:26;26.30;99.90
14471;DHT22;7321;50.802;4.336;2022-09-13T10:07:23;26.40;99.90
14471;DHT22;7321;50.802;4.336;2022-09-13T10:09:59;26.60;99.90
14471;DHT22;7321;50.802;4.336;2022-09-13T10:12:30;26.60;99.90
14471;DHT22;7321;50.802;4.336;2022-09-13T10:15:15;26.70;99.90
14471;DHT22;7321;50.802;4.336;2022-09-13T10:17:42;26.60;99.90
14471;DHT22;7321;50.802;4.336;2022-09-13T10:22:41;26.80;99.90
14471;DHT22;7321;50.802;4.336;2022-09-13T10:25:23;26.80;99.90
14471;DHT22;7321;50.802;4.336;2022-09-13T10:27:51;26.70;99.90
14471;DHT22;7321;50.802;4.336;2022-09-13T10:30:41;26.80;99.90
14471;DHT22;7321;50.802;4.336;2022-09-13T10:33:40;27.00;99.90
14471;DHT22;7321;50.802;4.336;2022-09-13T10:36:22;27.10;99.90
14471;DHT22;7321;50.802;4.336;2022-09-13T10:39:00;27.00;99.90
14471;DHT22;7321;50.802;4.336;2022-09-13T10:41:29;27.00;99.90
14471;DHT22;7321;50.802;4.336;2022-09-13T10:44:01;26.90;99.90
14471;DHT22;7321;50.802;4.336;2022-09-13T10:46:33;26.90;99.90
14471;DHT22;7321;50.802;4.336;2022-09-13T10:49:00;26.90;99.90
14471;DHT22;7321;50.802;4.336;2022-09-13T10:54:18;27.00;99.90
14471;DHT22;7321;50.802;4.336;2022-09-13T10:56:46;27.00;99.90
14471;DHT22;7321;50.802;4.336;2022-09-13T10:59:32;27.10;99.90
14471;DHT22;7321;50.802;4.336;2022-09-13T11:17:53;27.30;99.90
14471;DHT22;7321;50.802;4.336;2022-09-13T11:23:25;27.00;99.90
14471;DHT22;7321;50.802;4.336;2022-09-13T11:54:24;26.90;99.90
14471;DHT22;7321;50.802;4.336;2022-09-13T11:57:02;26.80;99.90
14471;DHT22;7321;50.802;4.336;2022-09-13T12:05:03;26.60;99.90
14471;DHT22;7321;50.802;4.336;2022-09-13T12:07:42;26.50;99.90
14471;DHT22;7321;50.802;4.336;2022-09-13T12:12:51;26.50;99.90
14471;DHT22;7321;50.802;4.336;2022-09-13T12:15:43;26.60;99.90
14471;DHT22;7321;50.802;4.336;2022-09-13T12:18:12;26.40;99.90
14471;DHT22;7321;50.802;4.336;2022-09-13T12:20:45;26.40;99.90
14471;DHT22;7321;50.802;4.336;2022-09-13T12:23:15;26.60;99.90
14471;DHT22;7321;50.802;4.336;2022-09-13T12:25:50;26.60;99.90
14471;DHT22;7321;50.802;4.336;2022-09-13T12:28:47;26.50;99.90
14471;DHT22;7321;50.802;4.336;2022-09-13T12:31:21;26.40;99.90
14471;DHT22;7321;50.802;4.336;2022-09-13T12:33:47;26.40;99.90
14471;DHT22;7321;50.802;4.336;2022-09-13T12:41:45;26.40;99.90
14471;DHT22;7321;50.802;4.336;2022-09-13T12:47:40;26.30;99.90
14471;DHT22;7321;50.802;4.336;2022-09-13T12:56:40;26.50;99.90
14471;DHT22;7321;50.802;4.336;2022-09-13T12:59:08;26.50;99.90
14471;DHT22;7321;50.802;4.336;2022-09-13T13:01:47;26.50;99.90
14471;DHT22;7321;50.802;4.336;2022-09-13T13:04:27;26.50;99.90
14471;DHT22;7321;50.802;4.336;2022-09-13T13:07:15;26.50;99.90
14471;DHT22;7321;50.802;4.336;2022-09-13T13:09:46;26.30;99.90
14471;DHT22;7321;50.802;4.336;2022-09-13T13:12:33;26.10;99.90
14471;DHT22;7321;50.802;4.336;2022-09-13T13:17:46;26.10;99.90
14471;DHT22;7321;50.802;4.336;2022-09-13T13:23:29;26.20;99.90
14471;DHT22;7321;50.802;4.336;2022-09-13T13:36:59;26.20;99.90
14471;DHT22;7321;50.802;4.336;2022-09-13T13:41:57;26.40;99.90
14471;DHT22;7321;50.802;4.336;2022-09-13T13:46:54;26.40;99.90
14471;DHT22;7321;50.802;4.336;2022-09-13T14:21:29;26.10;99.90
14471;DHT22;7321;50.802;4.336;2022-09-13T14:24:15;26.00;99.90
14471;DHT22;7321;50.802;4.336;2022-09-13T14:26:44;26.10;99.90
14471;DHT22;7321;50.802;4.336;2022-09-13T14:29:21;25.90;99.90
14471;DHT22;7321;50.802;4.336;2022-09-13T14:31:49;25.90;99.90
14471;DHT22;7321;50.802;4.336;2022-09-13T14:34:28;25.60;99.90
14471;DHT22;7321;50.802;4.336;2022-09-13T14:36:57;25.50;99.90
14471;DHT22;7321;50.802;4.336;2022-09-13T14:39:24;25.40;99.90
14471;DHT22;7321;50.802;4.336;2022-09-13T14:42:01;25.20;99.90
14471;DHT22;7321;50.802;4.336;2022-09-13T14:44:28;25.20;99.90
14471;DHT22;7321;50.802;4.336;2022-09-13T14:47:14;25.20;99.90
14471;DHT22;7321;50.802;4.336;2022-09-13T14:49:45;25.20;99.90
14471;DHT22;7321;50.802;4.336;2022-09-13T14:52:33;25.20;99.90
14471;DHT22;7321;50.802;4.336;2022-09-13T14:55:06;25.20;99.90
14471;DHT22;7321;50.802;4.336;2022-09-13T14:57:42;25.00;99.90
14471;DHT22;7321;50.802;4.336;2022-09-13T15:00:21;25.20;99.90
14471;DHT22;7321;50.802;4.336;2022-09-13T15:05:16;25.20;99.90
14471;DHT22;7321;50.802;4.336;2022-09-13T15:07:42;25.10;99.90
14471;DHT22;7321;50.802;4.336;2022-09-13T15:10:27;25.20;99.90
14471;DHT22;7321;50.802;4.336;2022-09-13T15:15:38;25.40;99.90
14471;DHT22;7321;50.802;4.336;2022-09-13T15:23:23;25.30;99.90
14471;DHT22;7321;50.802;4.336;2022-09-13T15:25:56;25.20;99.90
14471;DHT22;7321;50.802;4.336;2022-09-13T15:28:28;25.30;99.90
14471;DHT22;7321;50.802;4.336;2022-09-13T15:30:57;25.40;99.90
14471;DHT22;7321;50.802;4.336;2022-09-13T15:33:25;25.40;99.90
14471;DHT22;7321;50.802;4.336;2022-09-13T15:35:51;25.40;99.90
14471;DHT22;7321;50.802;4.336;2022-09-13T15:38:30;25.50;99.90
14471;DHT22;7321;50.802;4.336;2022-09-13T15:41:15;25.40;99.90
14471;DHT22;7321;50.802;4.336;2022-09-13T15:43:41;25.40;99.90
14471;DHT22;7321;50.802;4.336;2022-09-13T15:46:11;25.30;99.90
14471;DHT22;7321;50.802;4.336;2022-09-13T15:48:39;25.30;99.90
14471;DHT22;7321;50.802;4.336;2022-09-13T15:53:36;25.20;99.90
14471;DHT22;7321;50.802;4.336;2022-09-13T15:56:04;25.10;99.90
14471;DHT22;7321;50.802;4.336;2022-09-13T15:58:30;25.10;99.90
14471;DHT22;7321;50.802;4.336;2022-09-13T16:00:56;25.10;99.90
14471;DHT22;7321;50.802;4.336;2022-09-13T16:03:22;25.00;99.90
14471;DHT22;7321;50.802;4.336;2022-09-13T16:05:47;25.00;99.90
14471;DHT22;7321;50.802;4.336;2022-09-13T16:08:13;24.90;99.90
14471;DHT22;7321;50.802;4.336;2022-09-13T16:10:39;24.90;99.90
14471;DHT22;7321;50.802;4.336;2022-09-13T16:13:05;24.90;99.90
14471;DHT22;7321;50.802;4.336;2022-09-13T16:15:30;25.00;99.90
14471;DHT22;7321;50.802;4.336;2022-09-13T16:17:56;25.00;99.90
14471;DHT22;7321;50.802;4.336;2022-09-13T16:20:22;25.00;99.90
14471;DHT22;7321;50.802;4.336;2022-09-13T16:22:48;24.80;99.90
14471;DHT22;7321;50.802;4.336;2022-09-13T16:25:14;24.70;99.90
14471;DHT22;7321;50.802;4.336;2022-09-13T16:27:41;24.50;99.90
14471;DHT22;7321;50.802;4.336;2022-09-13T16:30:10;24.40;99.90
14471;DHT22;7321;50.802;4.336;2022-09-13T16:32:37;24.30;99.90
14471;DHT22;7321;50.802;4.336;2022-09-13T16:35:02;24.40;99.90
14471;DHT22;7321;50.802;4.336;2022-09-13T16:37:28;24.30;99.90
14471;DHT22;7321;50.802;4.336;2022-09-13T16:39:56;24.30;99.90
14471;DHT22;7321;50.802;4.336;2022-09-13T16:42:22;24.30;99.90
14471;DHT22;7321;50.802;4.336;2022-09-13T16:44:48;24.10;99.90
14471;DHT22;7321;50.802;4.336;2022-09-13T16:47:14;24.10;99.90
14471;DHT22;7321;50.802;4.336;2022-09-13T16:49:40;24.10;99.90
14471;DHT22;7321;50.802;4.336;2022-09-13T16:52:06;24.00;99.90
14471;DHT22;7321;50.802;4.336;2022-09-13T16:54:32;24.00;99.90
14471;DHT22;7321;50.802;4.336;2022-09-13T16:57:03;23.80;99.90
14471;DHT22;7321;50.802;4.336;2022-09-13T16:59:31;23.80;99.90
14471;DHT22;7321;50.802;4.336;2022-09-13T17:01:58;23.80;99.90
14471;DHT22;7321;50.802;4.336;2022-09-13T17:04:24;23.70;99.90
14471;DHT22;7321;50.802;4.336;2022-09-13T17:06:50;23.60;99.90
14471;DHT22;7321;50.802;4.336;2022-09-13T17:09:15;23.30;99.90
14471;DHT22;7321;50.802;4.336;2022-09-13T17:11:43;23.10;99.90
14471;DHT22;7321;50.802;4.336;2022-09-13T17:14:12;23.10;99.90
14471;DHT22;7321;50.802;4.336;2022-09-13T17:16:44;23.00;99.90
14471;DHT22;7321;50.802;4.336;2022-09-13T17:19:14;22.80;99.90
14471;DHT22;7321;50.802;4.336;2022-09-13T17:21:40;22.80;99.90
14471;DHT22;7321;50.802;4.336;2022-09-13T17:24:06;22.60;99.90
14471;DHT22;7321;50.802;4.336;2022-09-13T17:26:34;22.40;99.90
14471;DHT22;7321;50.802;4.336;2022-09-13T17:29:03;22.30;99.90
14471;DHT22;7321;50.802;4.336;2022-09-13T17:31:29;22.20;99.90
14471;DHT22;7321;50.802;4.336;2022-09-13T17:33:54;22.20;99.90
14471;DHT22;7321;50.802;4.336;2022-09-13T17:36:21;22.20;99.90
14471;DHT22;7321;50.802;4.336;2022-09-13T17:38:47;22.20;99.90
14471;DHT22;7321;50.802;4.336;2022-09-13T17:41:15;22.30;99.90
14471;DHT22;7321;50.802;4.336;2022-09-13T17:43:42;22.30;99.90
14471;DHT22;7321;50.802;4.336;2022-09-13T17:46:12;22.40;99.90
14471;DHT22;7321;50.802;4.336;2022-09-13T17:48:38;22.40;99.90
14471;DHT22;7321;50.802;4.336;2022-09-13T17:51:07;22.40;99.90
14471;DHT22;7321;50.802;4.336;2022-09-13T17:53:44;22.30;99.90
14471;DHT22;7321;50.802;4.336;2022-09-13T17:56:15;22.30;99.90
14471;DHT22;7321;50.802;4.336;2022-09-13T17:58:41;22.30;99.90
14471;DHT22;7321;50.802;4.336;2022-09-13T18:01:08;22.30;99.90
14471;DHT22;7321;50.802;4.336;2022-09-13T18:03:35;22.30;99.90
14471;DHT22;7321;50.802;4.336;2022-09-13T18:06:03;22.30;99.90
14471;DHT22;7321;50.802;4.336;2022-09-13T18:08:30;22.30;99.90
14471;DHT22;7321;50.802;4.336;2022-09-13T18:11:07;22.40;99.90
14471;DHT22;7321;50.802;4.336;2022-09-13T18:13:33;22.40;99.90
14471;DHT22;7321;50.802;4.336;2022-09-13T18:16:04;22.30;99.90
14471;DHT22;7321;50.802;4.336;2022-09-13T18:18:30;22.30;99.90
14471;DHT22;7321;50.802;4.336;2022-09-13T18:20:56;22.20;99.90
14471;DHT22;7321;50.802;4.336;2022-09-13T18:23:22;22.30;99.90
14471;DHT22;7321;50.802;4.336;2022-09-13T18:25:57;22.20;99.90
14471;DHT22;7321;50.802;4.336;2022-09-13T18:28:24;22.10;99.90
14471;DHT22;7321;50.802;4.336;2022-09-13T18:30:58;22.10;99.90
14471;DHT22;7321;50.802;4.336;2022-09-13T18:33:28;22.10;99.90
14471;DHT22;7321;50.802;4.336;2022-09-13T18:35:57;22.00;99.90
14471;DHT22;7321;50.802;4.336;2022-09-13T18:38:24;21.90;99.90
14471;DHT22;7321;50.802;4.336;2022-09-13T18:41:14;21.90;99.90
14471;DHT22;7321;50.802;4.336;2022-09-13T18:43:42;21.90;99.90
14471;DHT22;7321;50.802;4.336;2022-09-13T18:46:13;21.90;99.90
14471;DHT22;7321;50.802;4.336;2022-09-13T18:48:45;21.90;99.90
14471;DHT22;7321;50.802;4.336;2022-09-13T18:51:13;22.00;99.90
14471;DHT22;7321;50.802;4.336;2022-09-13T18:53:40;22.00;99.90
14471;DHT22;7321;50.802;4.336;2022-09-13T18:56:08;22.00;99.90
14471;DHT22;7321;50.802;4.336;2022-09-13T18:58:35;22.00;99.90
14471;DHT22;7321;50.802;4.336;2022-09-13T19:01:09;22.00;99.90
14471;DHT22;7321;50.802;4.336;2022-09-13T19:03:36;21.90;99.90
14471;DHT22;7321;50.802;4.336;2022-09-13T19:06:13;22.00;99.90
14471;DHT22;7321;50.802;4.336;2022-09-13T19:08:42;21.80;99.90
14471;DHT22;7321;50.802;4.336;2022-09-13T19:11:09;21.80;99.90
14471;DHT22;7321;50.802;4.336;2022-09-13T19:13:35;21.70;99.90
14471;DHT22;7321;50.802;4.336;2022-09-13T19:16:07;21.70;99.90
14471;DHT22;7321;50.802;4.336;2022-09-13T19:18:35;21.50;99.90
14471;DHT22;7321;50.802;4.336;2022-09-13T19:21:22;21.50;99.90
14471;DHT22;7321;50.802;4.336;2022-09-13T19:23:50;21.50;99.90
14471;DHT22;7321;50.802;4.336;2022-09-13T19:26:21;21.50;99.90
14471;DHT22;7321;50.802;4.336;2022-09-13T19:28:55;21.40;99.90
14471;DHT22;7321;50.802;4.336;2022-09-13T19:31:25;21.40;99.90
14471;DHT22;7321;50.802;4.336;2022-09-13T19:33:52;21.50;99.90
14471;DHT22;7321;50.802;4.336;2022-09-13T19:36:20;21.50;99.90